地図

経路データ

SID SEASON NUMBER BASIN SUBBASIN NAME ISO_TIME NATURE LAT LON WMO_WIND WMO_PRES WMO_AGENCY TRACK_TYPE DIST2LAND LANDFALL IFLAG USA_AGENCY USA_ATCF_ID USA_LAT USA_LON USA_RECORD USA_STATUS USA_WIND USA_PRES USA_SSHS USA_R34_NE USA_R34_SE USA_R34_SW USA_R34_NW USA_R50_NE USA_R50_SE USA_R50_SW USA_R50_NW USA_R64_NE USA_R64_SE USA_R64_SW USA_R64_NW USA_POCI USA_ROCI USA_RMW USA_EYE TOKYO_LAT TOKYO_LON TOKYO_GRADE TOKYO_WIND TOKYO_PRES TOKYO_R50_DIR TOKYO_R50_LONG TOKYO_R50_SHORT TOKYO_R30_DIR TOKYO_R30_LONG TOKYO_R30_SHORT TOKYO_LAND CMA_LAT CMA_LON CMA_CAT CMA_WIND CMA_PRES HKO_LAT HKO_LON HKO_CAT HKO_WIND HKO_PRES NEWDELHI_LAT NEWDELHI_LON NEWDELHI_GRADE NEWDELHI_WIND NEWDELHI_PRES NEWDELHI_CI NEWDELHI_DP NEWDELHI_POCI REUNION_LAT REUNION_LON REUNION_TYPE REUNION_WIND REUNION_PRES REUNION_TNUM REUNION_CI REUNION_RMW REUNION_R34_NE REUNION_R34_SE REUNION_R34_SW REUNION_R34_NW REUNION_R50_NE REUNION_R50_SE REUNION_R50_SW REUNION_R50_NW REUNION_R64_NE REUNION_R64_SE REUNION_R64_SW REUNION_R64_NW BOM_LAT BOM_LON BOM_TYPE BOM_WIND BOM_PRES BOM_TNUM BOM_CI BOM_RMW BOM_R34_NE BOM_R34_SE BOM_R34_SW BOM_R34_NW BOM_R50_NE BOM_R50_SE BOM_R50_SW BOM_R50_NW BOM_R64_NE BOM_R64_SE BOM_R64_SW BOM_R64_NW BOM_ROCI BOM_POCI BOM_EYE BOM_POS_METHOD BOM_PRES_METHOD NADI_LAT NADI_LON NADI_CAT NADI_WIND NADI_PRES WELLINGTON_LAT WELLINGTON_LON WELLINGTON_WIND WELLINGTON_PRES DS824_LAT DS824_LON DS824_STAGE DS824_WIND DS824_PRES TD9636_LAT TD9636_LON TD9636_STAGE TD9636_WIND TD9636_PRES TD9635_LAT TD9635_LON TD9635_WIND TD9635_PRES TD9635_ROCI NEUMANN_LAT NEUMANN_LON NEUMANN_CLASS NEUMANN_WIND NEUMANN_PRES MLC_LAT MLC_LON MLC_CLASS MLC_WIND MLC_PRES USA_GUST BOM_GUST BOM_GUST_PER REUNION_GUST REUNION_GUST_PER USA_SEAHGT USA_SEARAD_NE USA_SEARAD_SE USA_SEARAD_SW USA_SEARAD_NW STORM_SPEED STORM_DIR
1892042S25053 1892 8 SI MM NOT_NAMED 1892-02-11 06:00:00 NR -24.9000 53.2000 reunion main 456 456 _____O________ -1 -24.9000 53.2000 99 9.90000 3 226
1892042S25053 1892 8 SI MM NOT_NAMED 1892-02-11 09:00:00 NR -25.0027 53.0810 main 470 470 _____P________ -1 -25.0027 53.0810 99 3 226
1892042S25053 1892 8 SI MM NOT_NAMED 1892-02-11 12:00:00 NR -25.1075 52.9589 main 485 485 _____P________ -1 -25.1075 52.9589 99 3 227
1892042S25053 1892 8 SI MM NOT_NAMED 1892-02-11 15:00:00 NR -25.2165 52.8309 main 505 505 _____P________ -1 -25.2165 52.8309 99 3 227
1892042S25053 1892 8 SI MM NOT_NAMED 1892-02-11 18:00:00 NR -25.3319 52.6941 main 519 519 _____P________ -1 -25.3319 52.6941 99 4 227
1892042S25053 1892 8 SI MM NOT_NAMED 1892-02-11 21:00:00 NR -25.4559 52.5456 main 531 522 _____P________ -1 -25.4559 52.5456 99 4 228
1892042S25053 1892 8 SI MM NOT_NAMED 1892-02-12 00:00:00 NR -25.5904 52.3824 main 525 510 _____P________ -1 -25.5904 52.3824 99 4 228
1892042S25053 1892 8 SI MM NOT_NAMED 1892-02-12 03:00:00 NR -25.7378 52.2015 main 510 497 _____P________ -1 -25.7378 52.2015 99 5 228
1892042S25053 1892 8 SI MM NOT_NAMED 1892-02-12 06:00:00 NR -25.9000 52.0000 reunion main 497 482 _____O________ -1 -25.9000 52.0000 99 9.90000 5 228
1892042S25053 1892 8 SI MM NOT_NAMED 1892-02-12 09:00:00 NR -26.0784 51.7759 main 486 463 _____P________ -1 -26.0784 51.7759 99 6 229
1892042S25053 1892 8 SI MM NOT_NAMED 1892-02-12 12:00:00 NR -26.2713 51.5323 main 463 448 _____P________ -1 -26.2713 51.5323 99 6 229
1892042S25053 1892 8 SI MM NOT_NAMED 1892-02-12 15:00:00 NR -26.4762 51.2734 main 452 433 _____P________ -1 -26.4762 51.2734 99 6 228
1892042S25053 1892 8 SI MM NOT_NAMED 1892-02-12 18:00:00 NR -26.6909 51.0034 main 433 417 _____P________ -1 -26.6909 51.0034 99 7 228
1892042S25053 1892 8 SI MM NOT_NAMED 1892-02-12 21:00:00 NR -26.9129 50.7267 main 417 412 _____P________ -1 -26.9129 50.7267 99 7 228
1892042S25053 1892 8 SI MM NOT_NAMED 1892-02-13 00:00:00 NR -27.1399 50.4476 main 404 401 _____P________ -1 -27.1399 50.4476 99 7 227
1892042S25053 1892 8 SI MM NOT_NAMED 1892-02-13 03:00:00 NR -27.3697 50.1705 main 409 401 _____P________ -1 -27.3697 50.1705 99 7 227
1892042S25053 1892 8 SI MM NOT_NAMED 1892-02-13 06:00:00 NR -27.6000 49.9000 reunion main 401 395 _____O________ -1 -27.6000 49.9000 99 9.90000 7 225
1892042S25053 1892 8 SI MM NOT_NAMED 1892-02-13 09:00:00 NR -27.8317 49.6399 main 397 397 _____P________ -1 -27.8317 49.6399 99 7 224
1892042S25053 1892 8 SI MM NOT_NAMED 1892-02-13 12:00:00 NR -28.0670 49.3825 main 411 405 _____P________ -1 -28.0670 49.3825 99 7 224
1892042S25053 1892 8 SI MM NOT_NAMED 1892-02-13 15:00:00 NR -28.3032 49.1296 main 413 413 _____P________ -1 -28.3032 49.1296 99 6 223
1892042S25053 1892 8 SI MM NOT_NAMED 1892-02-13 18:00:00 NR -28.5374 48.8832 main 423 423 _____P________ -1 -28.5374 48.8832 99 6 223
1892042S25053 1892 8 SI MM NOT_NAMED 1892-02-13 21:00:00 NR -28.7670 48.6450 main 439 439 _____P________ -1 -28.7670 48.6450 99 6 222
1892042S25053 1892 8 SI MM NOT_NAMED 1892-02-14 00:00:00 NR -28.9891 48.4171 main 452 452 _____P________ -1 -28.9891 48.4171 99 6 222
1892042S25053 1892 8 SI MM NOT_NAMED 1892-02-14 03:00:00 NR -29.2010 48.2014 main 467 467 _____P________ -1 -29.2010 48.2014 99 6 222
1892042S25053 1892 8 SI MM NOT_NAMED 1892-02-14 06:00:00 NR -29.4000 48.0000 reunion main 483 483 _____O________ -1 -29.4000 48.0000 99 9.90000 5 221
1892042S25053 1892 8 SI MM NOT_NAMED 1892-02-14 09:00:00 NR -29.5841 47.8142 main 500 500 _____P________ -1 -29.5841 47.8142 99 5 221
1892042S25053 1892 8 SI MM NOT_NAMED 1892-02-14 12:00:00 NR -29.7546 47.6428 main 512 512 _____P________ -1 -29.7546 47.6428 99 4 221
1892042S25053 1892 8 SI MM NOT_NAMED 1892-02-14 15:00:00 NR -29.9134 47.4836 main 518 515 _____P________ -1 -29.9134 47.4836 99 4 221
1892042S25053 1892 8 SI MM NOT_NAMED 1892-02-14 18:00:00 NR -30.0625 47.3347 main 532 529 _____P________ -1 -30.0625 47.3347 99 4 221
1892042S25053 1892 8 SI MM NOT_NAMED 1892-02-14 21:00:00 NR -30.2037 47.1940 main 540 537 _____P________ -1 -30.2037 47.1940 99 4 221
1892042S25053 1892 8 SI MM NOT_NAMED 1892-02-15 00:00:00 NR -30.3391 47.0594 main 547 547 _____P________ -1 -30.3391 47.0594 99 4 220
1892042S25053 1892 8 SI MM NOT_NAMED 1892-02-15 03:00:00 NR -30.4706 46.9288 main 564 564 _____P________ -1 -30.4706 46.9288 99 3 220
1892042S25053 1892 8 SI MM NOT_NAMED 1892-02-15 06:00:00 NR -30.6000 46.8000 reunion main 572 _____O________ -1 -30.6000 46.8000 99 9.90000 3 221

IBTrACS Databaseについて

本データベースは、米国NOAAが公開する1842年以降の世界の熱帯低気圧のベストトラックデータアーカイブInternational Best Track Archive for Climate Stewardship (IBTrACS)を、ウェブで閲覧しやすい形式に変換したものです。

最終更新日:2021-11-26